Pepeekeo, Hawaii
Current Conditions -  °F | °C
As of 7:53 AM on Tuesday 21 Oct 2014 (Local Time) from PHTO Reporting Station
Scattered Clouds Scattered Clouds  
Wind Chill: 77°   Ceiling: Unl
Heat Index: 79°   Visibility: 10mi
Dew Point: 66°   Wind: 5mph
Humidity: 69%   Direction: 230°SW
Pressure: 30.03"   Gusts: NA
Location:  19.84°N, 155.09°W
Report Text: PHTO 211753Z 23004KT 10SM FEW025 SCT250 25/19 A3003 RMK AO2 SLP169 T02500189 10250 20206 51014
Loading
Personal Weather Stations






























Interactive Weather Map
Tropical Storm Tracking
New forecast layout! Learn more

10-Day Weather Forecast

Advertisements
Track Severe Weather on mobile